createdAt,value
2023-04-23T00:00:10.550Z,13.89
2023-04-23T00:01:10.504Z,14.00
2023-04-23T00:02:10.517Z,13.93
2023-04-23T00:03:10.756Z,13.87
2023-04-23T00:04:10.565Z,13.92
2023-04-23T00:05:10.498Z,13.92
2023-04-23T00:06:10.444Z,13.87
2023-04-23T00:07:10.422Z,13.79
2023-04-23T00:08:10.445Z,13.96
2023-04-23T00:09:10.385Z,14.00
2023-04-23T00:10:10.403Z,14.00
2023-04-23T00:11:10.395Z,13.93
2023-04-23T00:12:10.372Z,13.90
2023-04-23T00:13:10.376Z,13.92
2023-04-23T00:14:10.341Z,13.97
2023-04-23T00:15:10.368Z,13.90
2023-04-23T00:16:10.363Z,13.86
2023-04-23T00:17:10.304Z,13.86
2023-04-23T00:18:10.294Z,13.78
2023-04-23T00:19:10.372Z,13.63
2023-04-23T00:20:10.368Z,13.57
2023-04-23T00:21:10.265Z,13.71
2023-04-23T00:22:10.364Z,13.70
2023-04-23T00:23:10.250Z,13.70
2023-04-23T00:24:10.227Z,13.60
2023-04-23T00:25:10.242Z,13.60
2023-04-23T00:26:10.202Z,13.65
2023-04-23T00:27:10.250Z,13.54
2023-04-23T00:28:10.179Z,13.44
2023-04-23T00:29:10.173Z,13.30
2023-04-23T00:30:10.217Z,13.16
2023-04-23T00:31:10.154Z,13.15
2023-04-23T00:32:10.359Z,13.09
2023-04-23T00:33:10.134Z,13.03
2023-04-23T00:34:10.121Z,13.03
2023-04-23T00:35:10.100Z,13.03
2023-04-23T00:36:10.131Z,13.22
2023-04-23T00:37:10.091Z,13.28
2023-04-23T00:38:10.065Z,13.33
2023-04-23T00:39:10.067Z,13.27
2023-04-23T00:40:10.036Z,13.18
2023-04-23T00:41:10.084Z,13.20
2023-04-23T00:42:10.017Z,13.25
2023-04-23T00:43:10.009Z,13.30
2023-04-23T00:44:10.006Z,13.28
2023-04-23T00:45:09.993Z,13.25
2023-04-23T00:46:10.153Z,13.22
2023-04-23T00:47:09.974Z,13.13
2023-04-23T00:48:09.960Z,13.15
2023-04-23T00:49:09.950Z,13.09
2023-04-23T00:50:09.947Z,13.04
2023-04-23T00:51:09.971Z,12.94
2023-04-23T00:52:09.954Z,12.85
2023-04-23T00:53:09.907Z,12.72
2023-04-23T00:54:09.886Z,12.70
2023-04-23T00:55:09.872Z,12.76
2023-04-23T00:56:09.911Z,12.75
2023-04-23T00:57:09.861Z,12.73
2023-04-23T00:58:09.845Z,12.65
2023-04-23T00:59:09.827Z,12.67
2023-04-23T01:00:09.824Z,12.73
2023-04-23T01:01:09.879Z,12.70
2023-04-23T01:02:09.849Z,12.62
2023-04-23T01:03:09.865Z,12.54
2023-04-23T01:04:09.896Z,12.46
2023-04-23T01:05:09.763Z,12.42
2023-04-23T01:06:09.796Z,12.49
2023-04-23T01:07:09.749Z,12.49
2023-04-23T01:08:09.722Z,12.46
2023-04-23T01:09:09.703Z,12.35
2023-04-23T01:10:09.705Z,12.27
2023-04-23T01:11:09.749Z,12.36
2023-04-23T01:12:09.692Z,12.32
2023-04-23T01:13:09.679Z,12.22
2023-04-23T01:14:09.650Z,12.10
2023-04-23T01:15:09.650Z,11.95
2023-04-23T01:16:09.677Z,11.88
2023-04-23T01:17:09.658Z,11.86
2023-04-23T01:18:09.609Z,12.02
2023-04-23T01:19:09.640Z,11.99
2023-04-23T01:20:09.613Z,11.88
2023-04-23T01:21:09.618Z,11.73
2023-04-23T01:22:09.559Z,11.63
2023-04-23T01:23:09.559Z,11.52
2023-04-23T01:24:09.550Z,11.41
2023-04-23T01:25:09.552Z,11.27
2023-04-23T01:26:09.568Z,11.19
2023-04-23T01:27:09.526Z,11.17
2023-04-23T01:28:09.546Z,11.15
2023-04-23T01:29:09.500Z,11.10
2023-04-23T01:30:09.502Z,11.11
2023-04-23T01:31:09.567Z,11.17
2023-04-23T01:32:09.469Z,11.15
2023-04-23T01:33:09.482Z,11.11
2023-04-23T01:34:09.448Z,11.10
2023-04-23T01:35:09.445Z,11.10
2023-04-23T01:36:09.454Z,11.26
2023-04-23T01:37:09.399Z,11.25
2023-04-23T01:38:09.417Z,11.26
2023-04-23T01:39:09.385Z,11.23
2023-04-23T01:40:09.373Z,11.30
2023-04-23T01:41:09.406Z,11.32
2023-04-23T01:42:09.383Z,11.32
2023-04-23T01:43:09.319Z,11.33
2023-04-23T01:44:09.317Z,11.32
2023-04-23T01:45:09.319Z,11.29
2023-04-23T01:46:09.356Z,11.25
2023-04-23T01:47:09.288Z,11.19
2023-04-23T01:48:09.266Z,11.14
2023-04-23T01:49:09.275Z,11.10
2023-04-23T01:50:09.266Z,11.04
2023-04-23T01:51:09.297Z,11.10
2023-04-23T01:52:09.223Z,11.12
2023-04-23T01:53:09.233Z,11.10
2023-04-23T01:54:09.237Z,11.07
2023-04-23T01:55:09.205Z,11.08
2023-04-23T01:56:09.225Z,11.08
2023-04-23T01:57:09.184Z,11.04
2023-04-23T01:58:09.159Z,10.99
2023-04-23T01:59:09.167Z,10.93
2023-04-23T02:00:09.147Z,11.04
2023-04-23T02:01:09.249Z,11.00
2023-04-23T02:02:09.125Z,10.94
2023-04-23T02:03:09.327Z,10.89
2023-04-23T02:04:09.159Z,10.82
2023-04-23T02:05:09.149Z,10.72
2023-04-23T02:06:09.118Z,10.61
2023-04-23T02:07:09.044Z,10.53
2023-04-23T02:08:09.043Z,10.46
2023-04-23T02:09:09.044Z,10.37
2023-04-23T02:10:09.028Z,10.31
2023-04-23T02:11:09.060Z,10.35
2023-04-23T02:12:09.011Z,10.33
2023-04-23T02:13:09.022Z,10.28
2023-04-23T02:14:08.993Z,10.25
2023-04-23T02:15:08.972Z,10.23
2023-04-23T02:16:09.018Z,10.22
2023-04-23T02:17:08.955Z,10.20
2023-04-23T02:18:08.938Z,10.22
2023-04-23T02:19:08.943Z,10.22
2023-04-23T02:20:08.912Z,10.23
2023-04-23T02:21:08.950Z,10.23
2023-04-23T02:22:08.905Z,10.54
2023-04-23T02:23:08.902Z,10.48
2023-04-23T02:24:08.863Z,10.44
2023-04-23T02:25:08.891Z,10.40
2023-04-23T02:26:08.894Z,10.44
2023-04-23T02:27:08.871Z,10.46
2023-04-23T02:28:08.824Z,10.48
2023-04-23T02:29:08.832Z,10.42
2023-04-23T02:30:08.796Z,10.44
2023-04-23T02:31:08.854Z,10.46
2023-04-23T02:32:08.814Z,10.53
2023-04-23T02:33:08.764Z,10.54
2023-04-23T02:34:08.766Z,10.51
2023-04-23T02:35:08.760Z,10.48
2023-04-23T02:36:08.743Z,10.42
2023-04-23T02:37:08.752Z,10.48
2023-04-23T02:38:08.720Z,10.44
2023-04-23T02:39:08.713Z,10.40
2023-04-23T02:40:08.688Z,10.41
2023-04-23T02:41:08.686Z,10.38
2023-04-23T02:42:08.715Z,10.40
2023-04-23T02:43:08.672Z,10.48
2023-04-23T02:44:08.646Z,10.48
2023-04-23T02:45:08.640Z,10.46
2023-04-23T02:46:08.842Z,10.44
2023-04-23T02:47:08.636Z,10.22
2023-04-23T02:48:08.591Z,10.16
2023-04-23T02:49:08.593Z,10.13
2023-04-23T02:50:08.575Z,10.09
2023-04-23T02:51:08.576Z,10.05
2023-04-23T02:52:08.613Z,10.04
2023-04-23T02:53:08.568Z,10.05
2023-04-23T02:54:08.530Z,10.07
2023-04-23T02:55:08.531Z,10.07
2023-04-23T02:56:08.513Z,10.07
2023-04-23T02:57:08.538Z,10.04
2023-04-23T02:58:08.512Z,10.02
2023-04-23T02:59:08.470Z,9.98
2023-04-23T03:00:08.454Z,9.99
2023-04-23T03:01:08.508Z,9.95
2023-04-23T03:02:08.520Z,10.23
2023-04-23T03:03:09.977Z,10.23
2023-04-23T03:04:08.665Z,10.25
2023-04-23T03:05:08.396Z,9.94
2023-04-23T03:06:08.399Z,9.94
2023-04-23T03:07:08.408Z,9.92
2023-04-23T03:08:08.359Z,9.95
2023-04-23T03:09:08.360Z,9.95
2023-04-23T03:10:08.361Z,9.97
2023-04-23T03:11:08.327Z,9.98
2023-04-23T03:12:08.364Z,9.98
2023-04-23T03:13:08.318Z,9.98
2023-04-23T03:14:08.297Z,9.98
2023-04-23T03:15:08.306Z,9.97
2023-04-23T03:16:08.263Z,9.99
2023-04-23T03:17:08.324Z,9.98
2023-04-23T03:18:08.266Z,9.98
2023-04-23T03:19:08.248Z,9.97
2023-04-23T03:20:08.242Z,9.95
2023-04-23T03:21:08.223Z,10.22
2023-04-23T03:22:08.260Z,10.17
2023-04-23T03:23:08.214Z,10.19
2023-04-23T03:24:08.203Z,10.16
2023-04-23T03:25:08.178Z,10.16
2023-04-23T03:26:08.177Z,10.13
2023-04-23T03:27:08.192Z,10.15
2023-04-23T03:28:08.131Z,10.13
2023-04-23T03:29:08.130Z,10.10
2023-04-23T03:30:08.126Z,10.07
2023-04-23T03:31:08.180Z,10.05
2023-04-23T03:32:08.140Z,10.07
2023-04-23T03:33:08.073Z,10.04
2023-04-23T03:34:08.070Z,10.05
2023-04-23T03:35:08.064Z,10.04
2023-04-23T03:36:08.071Z,10.12
2023-04-23T03:37:08.096Z,10.15
2023-04-23T03:38:08.033Z,10.13
2023-04-23T03:39:08.031Z,10.10
2023-04-23T03:40:08.021Z,10.12
2023-04-23T03:41:07.987Z,10.10
2023-04-23T03:42:08.037Z,10.09
2023-04-23T03:43:07.999Z,10.10
2023-04-23T03:44:07.953Z,10.12
2023-04-23T03:45:07.938Z,10.12
2023-04-23T03:46:07.970Z,10.12
2023-04-23T03:47:07.934Z,10.15
2023-04-23T03:48:07.951Z,10.15
2023-04-23T03:49:07.898Z,10.19
2023-04-23T03:50:07.886Z,10.20
2023-04-23T03:51:07.876Z,10.22
2023-04-23T03:52:07.861Z,10.25
2023-04-23T03:53:07.927Z,10.31
2023-04-23T03:54:07.837Z,10.38
2023-04-23T03:55:07.836Z,10.51
2023-04-23T03:56:07.877Z,10.76
2023-04-23T03:57:07.812Z,10.92
2023-04-23T03:58:07.863Z,11.11
2023-04-23T03:59:07.789Z,11.11
2023-04-23T04:00:07.776Z,11.18
2023-04-23T04:01:07.788Z,11.26
2023-04-23T04:02:07.951Z,11.30
2023-04-23T04:03:07.946Z,11.32
2023-04-23T04:04:08.089Z,11.40
2023-04-23T04:05:07.977Z,11.44
2023-04-23T04:06:07.728Z,11.48
2023-04-23T04:07:07.758Z,11.54
2023-04-23T04:08:07.711Z,11.63
2023-04-23T04:09:07.698Z,11.70
2023-04-23T04:10:07.681Z,11.75
2023-04-23T04:11:07.651Z,11.83
2023-04-23T04:12:07.694Z,11.87
2023-04-23T04:13:07.648Z,11.95
2023-04-23T04:14:07.619Z,12.00
2023-04-23T04:15:07.629Z,12.04
2023-04-23T04:16:07.608Z,12.09
2023-04-23T04:17:07.584Z,12.12
2023-04-23T04:18:07.631Z,12.10
2023-04-23T04:19:07.580Z,12.12
2023-04-23T04:20:07.583Z,12.15
2023-04-23T04:21:07.592Z,12.20
2023-04-23T04:22:07.553Z,12.25
2023-04-23T04:23:07.588Z,12.27
2023-04-23T04:24:07.515Z,12.43
2023-04-23T04:25:07.496Z,12.55
2023-04-23T04:26:07.485Z,12.65
2023-04-23T04:27:07.468Z,12.76
2023-04-23T04:28:07.493Z,12.80
2023-04-23T04:29:07.464Z,12.86
2023-04-23T04:30:07.468Z,12.94
2023-04-23T04:31:07.452Z,12.97
2023-04-23T04:32:07.403Z,12.95
2023-04-23T04:33:07.425Z,12.67
2023-04-23T04:34:07.390Z,12.97
2023-04-23T04:35:07.380Z,12.85
2023-04-23T04:36:07.361Z,13.08
2023-04-23T04:37:07.362Z,13.04
2023-04-23T04:38:07.386Z,13.00
2023-04-23T04:39:07.333Z,13.04
2023-04-23T04:40:07.351Z,13.09
2023-04-23T04:41:07.325Z,13.23
2023-04-23T04:42:07.361Z,13.28
2023-04-23T04:43:07.331Z,13.77
2023-04-23T04:44:07.277Z,13.62
2023-04-23T04:45:07.268Z,13.56
2023-04-23T04:46:07.729Z,13.60
2023-04-23T04:47:07.304Z,13.68
2023-04-23T04:48:07.260Z,13.63
2023-04-23T04:49:07.217Z,13.85
2023-04-23T04:50:07.207Z,13.75
2023-04-23T04:51:07.206Z,13.74
2023-04-23T04:52:07.177Z,13.79
2023-04-23T04:53:07.204Z,14.11
2023-04-23T04:54:07.153Z,14.20
2023-04-23T04:55:07.180Z,13.97
2023-04-23T04:56:07.146Z,14.08
2023-04-23T04:57:07.125Z,14.36
2023-04-23T04:58:07.165Z,14.41
2023-04-23T04:59:07.111Z,14.15
2023-04-23T05:00:07.086Z,14.25
2023-04-23T05:01:07.136Z,14.41
2023-04-23T05:02:07.137Z,14.32
2023-04-23T05:03:07.185Z,14.60
2023-04-23T05:04:07.218Z,14.44
2023-04-23T05:05:07.039Z,14.70
2023-04-23T05:06:07.007Z,14.68
2023-04-23T05:07:07.018Z,14.58
2023-04-23T05:08:07.041Z,14.84
2023-04-23T05:09:06.999Z,14.86
2023-04-23T05:10:06.990Z,14.96
2023-04-23T05:11:06.965Z,14.99
2023-04-23T05:12:06.958Z,14.99
2023-04-23T05:13:06.989Z,14.79
2023-04-23T05:14:06.924Z,14.94
2023-04-23T05:15:06.918Z,15.21
2023-04-23T05:16:06.896Z,15.10
2023-04-23T05:17:06.973Z,15.39
2023-04-23T05:18:06.926Z,15.52
2023-04-23T05:19:06.866Z,15.67
2023-04-23T05:20:06.873Z,15.79
2023-04-23T05:21:06.857Z,15.61
2023-04-23T05:22:06.858Z,15.68
2023-04-23T05:23:06.864Z,15.77
2023-04-23T05:24:06.835Z,16.05
2023-04-23T05:25:06.820Z,16.36
2023-04-23T05:26:06.806Z,16.21
2023-04-23T05:27:06.787Z,16.31
2023-04-23T05:28:06.807Z,16.81
2023-04-23T05:29:06.788Z,16.96
2023-04-23T05:30:06.742Z,17.20
2023-04-23T05:31:06.756Z,17.15
2023-04-23T05:32:06.754Z,17.52
2023-04-23T05:33:06.836Z,17.72
2023-04-23T05:34:06.728Z,18.08
2023-04-23T05:35:06.710Z,18.13
2023-04-23T05:36:06.693Z,18.35
2023-04-23T05:37:06.674Z,18.47
2023-04-23T05:38:06.703Z,18.47
2023-04-23T05:39:06.658Z,18.75
2023-04-23T05:40:06.639Z,18.88
2023-04-23T05:41:06.619Z,18.88
2023-04-23T05:42:06.627Z,18.89
2023-04-23T05:43:06.642Z,18.55
2023-04-23T05:44:06.597Z,18.45
2023-04-23T05:45:08.547Z,18.15
2023-04-23T05:46:06.620Z,17.83
2023-04-23T05:47:06.556Z,17.71
2023-04-23T05:48:06.641Z,17.42
2023-04-23T05:49:06.546Z,17.34
2023-04-23T05:50:06.514Z,17.44
2023-04-23T05:51:06.495Z,17.67
2023-04-23T05:52:06.504Z,17.51
2023-04-23T05:53:06.496Z,17.30
2023-04-23T05:54:06.476Z,17.22
2023-04-23T05:55:06.434Z,17.23
2023-04-23T05:56:06.487Z,17.36
2023-04-23T05:57:06.452Z,17.27
2023-04-23T05:58:06.472Z,17.29
2023-04-23T05:59:06.436Z,17.34
2023-04-23T06:00:06.410Z,17.12
2023-04-23T06:01:06.381Z,17.11
2023-04-23T06:02:06.543Z,16.96
2023-04-23T06:03:06.550Z,16.90
2023-04-23T06:04:06.630Z,16.94
2023-04-23T06:05:06.449Z,17.04
2023-04-23T06:06:06.359Z,-39.96
2023-04-23T06:07:06.356Z,17.15
2023-04-23T06:08:06.360Z,17.27
2023-04-23T06:09:06.298Z,17.41
2023-04-23T06:10:06.280Z,17.52
2023-04-23T06:11:06.270Z,17.87
2023-04-23T06:12:06.279Z,18.05
2023-04-23T06:13:06.299Z,18.20
2023-04-23T06:14:06.241Z,18.26
2023-04-23T06:15:06.244Z,18.07
2023-04-23T06:16:06.244Z,17.97
2023-04-23T06:17:06.216Z,18.26
2023-04-23T06:18:06.328Z,18.63
2023-04-23T06:19:06.208Z,18.74
2023-04-23T06:20:06.184Z,18.55
2023-04-23T06:21:06.162Z,18.19
2023-04-23T06:22:06.173Z,17.87
2023-04-23T06:23:06.130Z,17.71
2023-04-23T06:24:06.162Z,17.59
2023-04-23T06:25:06.114Z,17.49
2023-04-23T06:26:06.102Z,17.38
2023-04-23T06:27:06.099Z,17.15
2023-04-23T06:28:06.082Z,17.14
2023-04-23T06:29:06.107Z,17.24
2023-04-23T06:30:06.062Z,17.49
2023-04-23T06:31:06.089Z,17.80
2023-04-23T06:32:06.036Z,17.98
2023-04-23T06:33:06.044Z,17.97
2023-04-23T06:34:06.091Z,18.25
2023-04-23T06:35:06.270Z,18.49
2023-04-23T06:36:06.013Z,19.04
2023-04-23T06:37:05.978Z,19.34
2023-04-23T06:38:05.967Z,19.51
2023-04-23T06:39:06.002Z,19.82
2023-04-23T06:40:05.948Z,19.94
2023-04-23T06:41:05.968Z,20.02
2023-04-23T06:42:05.941Z,20.10
2023-04-23T06:43:05.919Z,20.31
2023-04-23T06:44:05.937Z,20.66
2023-04-23T06:45:06.467Z,21.30
2023-04-23T06:46:05.868Z,20.70
2023-04-23T06:47:05.950Z,20.74
2023-04-23T06:48:05.890Z,20.50
2023-04-23T06:49:05.898Z,20.04
2023-04-23T06:50:05.831Z,19.74
2023-04-23T06:51:05.825Z,19.69
2023-04-23T06:52:05.806Z,19.92
2023-04-23T06:53:05.798Z,19.88
2023-04-23T06:54:05.842Z,19.92
2023-04-23T06:55:05.787Z,19.58
2023-04-23T06:56:05.777Z,19.52
2023-04-23T06:57:05.745Z,19.44
2023-04-23T06:58:05.739Z,19.89
2023-04-23T06:59:05.782Z,20.37
2023-04-23T07:00:05.745Z,20.80
2023-04-23T07:01:05.772Z,20.60
2023-04-23T07:02:05.746Z,20.40
2023-04-23T07:03:05.833Z,20.10
2023-04-23T07:04:05.713Z,19.89
2023-04-23T07:05:05.676Z,20.34
2023-04-23T07:06:05.664Z,20.87
2023-04-23T07:07:05.651Z,20.77
2023-04-23T07:08:05.667Z,20.60
2023-04-23T07:09:05.671Z,20.56
2023-04-23T07:10:05.632Z,20.58
2023-04-23T07:11:05.779Z,20.44
2023-04-23T07:12:05.615Z,20.52
2023-04-23T07:13:05.603Z,20.18
2023-04-23T07:14:05.579Z,20.44
2023-04-23T07:15:05.673Z,20.70
2023-04-23T07:16:05.549Z,20.87
2023-04-23T07:17:05.652Z,21.09
2023-04-23T07:18:05.535Z,21.07
2023-04-23T07:19:05.558Z,20.74
2023-04-23T07:20:05.557Z,20.87
2023-04-23T07:21:05.534Z,20.90
2023-04-23T07:22:05.494Z,20.56
2023-04-23T07:23:05.510Z,20.39
2023-04-23T07:24:05.472Z,20.24
2023-04-23T07:25:05.522Z,20.26
2023-04-23T07:26:05.469Z,20.19
2023-04-23T07:27:05.444Z,20.16
2023-04-23T07:28:05.451Z,20.13
2023-04-23T07:29:05.416Z,19.94
2023-04-23T07:30:05.458Z,19.84
2023-04-23T07:31:05.424Z,20.31
2023-04-23T07:32:05.410Z,20.62
2023-04-23T07:33:05.415Z,21.00
2023-04-23T07:34:05.355Z,21.17
2023-04-23T07:35:05.389Z,21.07
2023-04-23T07:36:05.388Z,20.99
2023-04-23T07:37:05.365Z,21.27
2023-04-23T07:38:05.349Z,21.93
2023-04-23T07:39:05.296Z,21.52
2023-04-23T07:40:05.353Z,21.32
2023-04-23T07:41:05.274Z,21.35
2023-04-23T07:42:05.280Z,21.45
2023-04-23T07:43:05.268Z,21.66
2023-04-23T07:44:05.271Z,21.85
2023-04-23T07:45:06.052Z,22.13
2023-04-23T07:46:05.262Z,22.30
2023-04-23T07:47:05.231Z,22.10
2023-04-23T07:48:05.234Z,22.13
2023-04-23T07:49:05.204Z,22.43
2023-04-23T07:50:05.225Z,22.78
2023-04-23T07:51:05.183Z,23.17
2023-04-23T07:52:05.172Z,22.59
2023-04-23T07:53:05.174Z,21.83
2023-04-23T07:54:05.138Z,21.45
2023-04-23T07:55:05.207Z,21.35
2023-04-23T07:56:05.121Z,21.79
2023-04-23T07:57:05.148Z,21.45
2023-04-23T07:58:05.107Z,21.64
2023-04-23T07:59:05.107Z,21.79
2023-04-23T08:00:05.139Z,22.29
2023-04-23T08:01:05.104Z,22.18
2023-04-23T08:02:05.113Z,21.58
2023-04-23T08:03:05.153Z,21.62
2023-04-23T08:04:05.269Z,21.35
2023-04-23T08:05:05.126Z,21.00
2023-04-23T08:06:05.023Z,20.82
2023-04-23T08:07:05.001Z,20.60
2023-04-23T08:08:05.017Z,20.65
2023-04-23T08:09:04.983Z,21.00
2023-04-23T08:10:05.007Z,21.39
2023-04-23T08:11:04.996Z,21.60
2023-04-23T08:12:04.987Z,21.69
2023-04-23T08:13:04.922Z,21.79
2023-04-23T08:14:04.903Z,21.62
2023-04-23T08:15:04.951Z,21.50
2023-04-23T08:16:04.909Z,21.37
2023-04-23T08:17:04.902Z,21.30
2023-04-23T08:18:04.906Z,21.09
2023-04-23T08:19:06.223Z,21.00
2023-04-23T08:20:04.886Z,20.84
2023-04-23T08:21:04.822Z,20.95
2023-04-23T08:22:04.847Z,20.87
2023-04-23T08:23:04.818Z,20.80
2023-04-23T08:24:04.833Z,20.75
2023-04-23T08:25:04.861Z,20.65
2023-04-23T08:26:04.799Z,20.58
2023-04-23T08:27:04.809Z,20.41
2023-04-23T08:28:05.001Z,20.24
2023-04-23T08:29:04.772Z,19.96
2023-04-23T08:30:04.798Z,19.95
2023-04-23T08:31:15.130Z,19.79
2023-04-23T08:32:05.795Z,19.67
2023-04-23T08:33:04.755Z,19.54
2023-04-23T08:34:04.704Z,19.44
2023-04-23T08:35:04.749Z,19.36
2023-04-23T08:36:04.691Z,19.39
2023-04-23T08:37:04.873Z,19.45
2023-04-23T08:38:04.668Z,19.29
2023-04-23T08:39:04.644Z,19.27
2023-04-23T08:40:04.653Z,19.22
2023-04-23T08:41:04.604Z,19.14
2023-04-23T08:42:04.583Z,19.11
2023-04-23T08:43:04.611Z,19.21
2023-04-23T08:44:04.583Z,18.96
2023-04-23T08:45:04.649Z,19.12
2023-04-23T08:46:04.571Z,18.99
2023-04-23T08:47:04.630Z,18.90
2023-04-23T08:48:04.558Z,18.92
2023-04-23T08:49:04.530Z,18.96
2023-04-23T08:50:04.569Z,18.90
2023-04-23T08:51:04.504Z,18.92
2023-04-23T08:52:04.502Z,18.95
2023-04-23T08:53:04.496Z,18.81
2023-04-23T08:54:04.481Z,18.60
2023-04-23T08:55:04.520Z,18.43
2023-04-23T08:56:04.465Z,18.25
2023-04-23T08:57:04.441Z,18.16
2023-04-23T08:58:04.433Z,18.19
2023-04-23T08:59:04.428Z,18.19
2023-04-23T09:00:04.475Z,17.98
2023-04-23T09:01:04.449Z,17.86
2023-04-23T09:02:04.470Z,17.82
2023-04-23T09:03:04.597Z,17.78
2023-04-23T09:04:04.385Z,17.74
2023-04-23T09:05:04.678Z,17.72
2023-04-23T09:06:04.348Z,17.79
2023-04-23T09:07:04.396Z,17.79
2023-04-23T09:08:04.333Z,17.80
2023-04-23T09:09:04.318Z,18.04
2023-04-23T09:10:04.414Z,18.13
2023-04-23T09:11:04.316Z,18.26
2023-04-23T09:12:04.263Z,18.38
2023-04-23T09:13:04.276Z,18.62
2023-04-23T09:14:04.246Z,18.70
2023-04-23T09:15:04.361Z,18.83
2023-04-23T09:16:04.214Z,18.81
2023-04-23T09:17:04.232Z,18.86
2023-04-23T09:18:04.243Z,19.00
2023-04-23T09:19:04.223Z,18.96
2023-04-23T09:20:04.240Z,19.22
2023-04-23T09:21:04.179Z,19.66
2023-04-23T09:22:04.165Z,19.81
2023-04-23T09:23:04.158Z,20.19
2023-04-23T09:24:04.144Z,20.47
2023-04-23T09:25:04.216Z,20.82
2023-04-23T09:26:04.119Z,21.17
2023-04-23T09:27:04.135Z,21.45
2023-04-23T09:28:04.082Z,21.45
2023-04-23T09:29:04.080Z,21.60
2023-04-23T09:30:04.118Z,21.58
2023-04-23T09:31:04.079Z,21.54
2023-04-23T09:32:04.085Z,21.66
2023-04-23T09:33:04.100Z,22.07
2023-04-23T09:34:04.010Z,22.33
2023-04-23T09:35:04.072Z,22.98
2023-04-23T09:36:04.043Z,22.88
2023-04-23T09:37:04.004Z,22.87
2023-04-23T09:38:03.957Z,22.98
2023-04-23T09:39:03.949Z,23.21
2023-04-23T09:40:03.959Z,23.74
2023-04-23T09:41:03.987Z,24.55
2023-04-23T09:42:03.992Z,24.70
2023-04-23T09:43:03.931Z,25.26
2023-04-23T09:44:03.936Z,25.16
2023-04-23T09:45:03.951Z,25.40
2023-04-23T09:46:03.979Z,25.60
2023-04-23T09:47:03.905Z,24.86
2023-04-23T09:48:04.012Z,24.33
2023-04-23T09:49:03.877Z,23.84
2023-04-23T09:50:03.845Z,23.98
2023-04-23T09:51:03.885Z,24.01
2023-04-23T09:52:03.820Z,23.55
2023-04-23T09:53:03.837Z,23.24
2023-04-23T09:54:03.824Z,23.41
2023-04-23T09:55:03.921Z,23.56
2023-04-23T09:56:03.828Z,23.66
2023-04-23T09:57:03.757Z,23.88
2023-04-23T09:58:03.781Z,23.68
2023-04-23T09:59:03.751Z,22.63
2023-04-23T10:00:17.298Z,22.50
2023-04-23T10:01:04.796Z,22.60
2023-04-23T10:02:03.716Z,22.57
2023-04-23T10:03:03.892Z,22.22
2023-04-23T10:04:03.828Z,22.28
2023-04-23T10:05:14.310Z,21.99
2023-04-23T10:06:04.833Z,21.98
2023-04-23T10:07:17.936Z,21.93
2023-04-23T10:08:04.641Z,21.99
2023-04-23T10:09:03.616Z,22.08
2023-04-23T10:10:03.610Z,22.25
2023-04-23T10:11:17.676Z,22.47
2023-04-23T10:12:04.609Z,22.51
2023-04-23T10:13:03.597Z,22.59
2023-04-23T10:14:03.596Z,22.33
2023-04-23T10:15:03.619Z,21.30
2023-04-23T10:16:14.448Z,20.28
2023-04-23T10:17:04.590Z,20.44
2023-04-23T10:18:03.562Z,20.69
2023-04-23T10:19:03.541Z,20.75
2023-04-23T10:20:03.519Z,20.82
2023-04-23T10:21:03.548Z,20.81
2023-04-23T10:22:18.136Z,21.06
2023-04-23T10:23:04.484Z,20.75
2023-04-23T10:24:03.493Z,20.58
2023-04-23T10:25:03.476Z,20.32
2023-04-23T10:26:03.483Z,19.96
2023-04-23T10:27:03.440Z,19.48
2023-04-23T10:28:03.434Z,18.98
2023-04-23T10:29:03.426Z,18.83
2023-04-23T10:30:05.482Z,18.83
2023-04-23T10:31:03.442Z,18.84
2023-04-23T10:32:03.417Z,19.04
2023-04-23T10:33:03.437Z,19.26
2023-04-23T10:34:03.445Z,19.37
2023-04-23T10:35:03.380Z,19.36
2023-04-23T10:36:03.315Z,19.40
2023-04-23T10:37:03.370Z,19.59
2023-04-23T10:38:03.319Z,19.76
2023-04-23T10:39:03.302Z,19.82
2023-04-23T10:40:03.312Z,20.13
2023-04-23T10:41:03.278Z,20.24
2023-04-23T10:42:03.307Z,20.60
2023-04-23T10:43:03.279Z,20.85
2023-04-23T10:44:03.259Z,21.03
2023-04-23T10:45:13.082Z,21.20
2023-04-23T10:46:04.293Z,20.99
2023-04-23T10:47:03.257Z,20.78
2023-04-23T10:48:03.252Z,20.13
2023-04-23T10:49:03.209Z,19.92
2023-04-23T10:51:24.857Z,19.29
2023-04-23T10:53:03.150Z,19.22
2023-04-23T10:54:03.266Z,19.29
2023-04-23T10:55:03.222Z,19.34
2023-04-23T10:56:03.099Z,19.36
2023-04-23T10:57:03.151Z,19.34
2023-04-23T10:58:03.439Z,19.37
2023-04-23T10:59:03.086Z,19.49
2023-04-23T11:00:03.064Z,19.51
2023-04-23T11:01:03.076Z,19.48
2023-04-23T11:02:03.135Z,19.52
2023-04-23T11:03:03.118Z,19.40
2023-04-23T11:04:03.097Z,19.40
2023-04-23T11:05:03.139Z,19.37
2023-04-23T11:06:03.001Z,19.33
2023-04-23T11:07:03.093Z,19.14
2023-04-23T11:08:11.040Z,18.83
2023-04-23T11:09:03.960Z,18.80
2023-04-23T11:10:02.974Z,18.62
2023-04-23T11:11:02.940Z,-40.00
2023-04-23T11:12:02.976Z,18.43
2023-04-23T11:13:02.915Z,18.31
2023-04-23T11:14:02.932Z,18.19
2023-04-23T11:15:02.899Z,18.13
2023-04-23T11:16:02.909Z,18.08
2023-04-23T11:17:02.903Z,18.07
2023-04-23T11:18:02.917Z,17.92
2023-04-23T11:19:02.872Z,17.64
2023-04-23T11:20:02.903Z,17.33
2023-04-23T11:21:02.837Z,17.16
2023-04-23T11:22:02.943Z,16.99
2023-04-23T11:23:02.847Z,16.91
2023-04-23T11:24:02.802Z,16.96
2023-04-23T11:25:02.784Z,16.94
2023-04-23T11:26:02.785Z,16.97
2023-04-23T11:27:02.874Z,17.09
2023-04-23T11:28:02.794Z,17.16
2023-04-23T11:29:02.740Z,17.30
2023-04-23T11:30:02.803Z,17.42
2023-04-23T11:31:02.721Z,17.60
2023-04-23T11:32:03.941Z,17.74
2023-04-23T11:33:02.948Z,17.94
2023-04-23T11:34:02.696Z,18.18
2023-04-23T11:35:02.696Z,18.35
2023-04-23T11:36:02.665Z,18.49
2023-04-23T11:37:02.660Z,18.37
2023-04-23T11:38:02.703Z,18.34
2023-04-23T11:39:02.642Z,18.37
2023-04-23T11:40:02.643Z,18.41
2023-04-23T11:41:02.600Z,18.33
2023-04-23T11:42:02.612Z,18.40
2023-04-23T11:43:02.643Z,18.11
2023-04-23T11:44:02.584Z,18.00
2023-04-23T11:45:02.557Z,18.08
2023-04-23T11:46:02.637Z,18.45
2023-04-23T11:47:02.639Z,18.63
2023-04-23T11:48:02.640Z,18.95
2023-04-23T11:49:02.533Z,19.12
2023-04-23T11:50:02.555Z,19.08
2023-04-23T11:51:02.540Z,19.30
2023-04-23T11:52:02.503Z,19.07
2023-04-23T11:53:02.500Z,19.00
2023-04-23T11:54:02.459Z,19.18
2023-04-23T11:55:02.468Z,19.30
2023-04-23T11:56:02.434Z,19.34
2023-04-23T11:57:02.425Z,19.62
2023-04-23T11:58:02.468Z,19.59
2023-04-23T11:59:02.397Z,19.40
2023-04-23T12:00:02.398Z,19.24
2023-04-23T12:01:02.368Z,18.96
2023-04-23T12:02:02.389Z,19.00
2023-04-23T12:03:02.659Z,18.99
2023-04-23T12:04:02.517Z,19.29
2023-04-23T12:05:02.358Z,19.11
2023-04-23T12:06:02.330Z,19.15
2023-04-23T12:07:08.003Z,19.34
2023-04-23T12:08:03.365Z,19.40
2023-04-23T12:09:02.275Z,19.41
2023-04-23T12:10:02.255Z,19.40
2023-04-23T12:11:02.268Z,19.07
2023-04-23T12:12:02.245Z,18.74
2023-04-23T12:13:02.276Z,18.86
2023-04-23T12:14:02.226Z,18.80
2023-04-23T12:15:02.226Z,18.99
2023-04-23T12:16:02.292Z,18.83
2023-04-23T12:17:02.195Z,18.86
2023-04-23T12:18:02.266Z,18.83
2023-04-23T12:19:02.168Z,18.74
2023-04-23T12:20:02.188Z,18.38
2023-04-23T12:21:02.158Z,18.22
2023-04-23T12:22:02.148Z,18.07
2023-04-23T12:23:02.224Z,18.01
2023-04-23T12:24:02.114Z,18.03
2023-04-23T12:25:02.136Z,18.04
2023-04-23T12:26:02.110Z,17.83
2023-04-23T12:27:02.125Z,17.67
2023-04-23T12:28:02.107Z,17.51
2023-04-23T12:29:02.050Z,17.57
2023-04-23T12:30:03.469Z,17.48
2023-04-23T12:31:02.055Z,17.27
2023-04-23T12:32:02.067Z,17.26
2023-04-23T12:33:02.124Z,17.33
2023-04-23T12:34:02.020Z,17.31
2023-04-23T12:35:01.987Z,17.23
2023-04-23T12:36:02.005Z,16.97
2023-04-23T12:37:01.984Z,16.74
2023-04-23T12:38:01.990Z,16.58
2023-04-23T12:39:01.977Z,16.64
2023-04-23T12:40:01.955Z,16.64
2023-04-23T12:41:02.028Z,16.56
2023-04-23T12:42:01.910Z,16.61
2023-04-23T12:43:01.978Z,16.61
2023-04-23T12:44:01.933Z,16.51
2023-04-23T12:45:01.924Z,16.53
2023-04-23T12:46:01.876Z,16.60
2023-04-23T12:47:01.892Z,16.74
2023-04-23T12:48:01.908Z,16.87
2023-04-23T12:49:01.895Z,16.99
2023-04-23T12:50:01.847Z,17.19
2023-04-23T12:51:01.823Z,17.41
2023-04-23T12:52:01.834Z,17.44
2023-04-23T12:53:01.805Z,17.52
2023-04-23T12:54:01.828Z,17.68
2023-04-23T12:55:01.761Z,17.74